createdAt,value
2022-12-24T00:03:10.562Z,34.20
2022-12-24T00:08:09.448Z,35.53
2022-12-24T00:13:08.344Z,31.60
2022-12-24T00:18:07.195Z,33.10
2022-12-24T00:23:07.354Z,35.17
2022-12-24T00:28:06.415Z,33.47
2022-12-24T00:33:05.180Z,33.72
2022-12-24T00:38:04.647Z,43.40
2022-12-24T00:43:08.419Z,53.08
2022-12-24T00:53:05.907Z,57.80
2022-12-24T00:58:06.172Z,56.08
2022-12-24T01:03:05.141Z,33.83
2022-12-24T01:08:03.984Z,30.27
2022-12-24T01:13:03.805Z,35.80
2022-12-24T01:18:03.986Z,30.47
2022-12-24T01:23:02.905Z,30.10
2022-12-24T01:28:01.717Z,29.63
2022-12-24T01:33:00.521Z,31.63
2022-12-24T01:38:00.775Z,34.35
2022-12-24T01:43:17.110Z,44.35
2022-12-24T01:48:31.328Z,72.20
2022-12-24T01:53:33.274Z,33.07
2022-12-24T01:58:33.800Z,25.98
2022-12-24T02:03:32.662Z,26.27
2022-12-24T02:08:41.050Z,29.33
2022-12-24T02:13:40.315Z,26.47
2022-12-24T02:18:47.727Z,23.53
2022-12-24T02:24:10.902Z,23.80
2022-12-24T02:29:28.659Z,22.83
2022-12-24T02:34:34.385Z,20.48
2022-12-24T02:39:41.923Z,23.02
2022-12-24T02:44:46.373Z,19.23
2022-12-24T02:49:48.946Z,22.45
2022-12-24T02:54:47.763Z,21.35
2022-12-24T03:00:16.358Z,20.73
2022-12-24T03:05:26.448Z,23.42
2022-12-24T03:10:32.263Z,24.55
2022-12-24T03:15:33.428Z,24.17
2022-12-24T03:20:39.394Z,22.65
2022-12-24T03:25:42.436Z,26.25
2022-12-24T03:30:42.331Z,26.58
2022-12-24T03:35:42.525Z,24.73
2022-12-24T03:40:41.320Z,23.58
2022-12-24T03:45:40.347Z,24.63
2022-12-24T03:50:39.123Z,22.77
2022-12-24T03:55:39.889Z,23.50
2022-12-24T04:00:38.710Z,24.67
2022-12-24T04:05:37.521Z,27.63
2022-12-24T04:10:36.289Z,29.00
2022-12-24T04:15:36.560Z,30.20
2022-12-24T04:20:35.351Z,32.08
2022-12-24T04:25:34.102Z,36.53
2022-12-24T04:30:33.105Z,35.03
2022-12-24T04:35:33.295Z,33.07
2022-12-24T04:40:34.412Z,28.03
2022-12-24T04:45:33.279Z,29.63
2022-12-24T04:50:33.832Z,28.73
2022-12-24T04:55:32.753Z,29.17
2022-12-24T05:00:31.527Z,30.60
2022-12-24T05:05:31.062Z,28.90
2022-12-24T05:10:32.046Z,28.73
2022-12-24T05:15:33.471Z,44.13
2022-12-24T05:20:52.292Z,45.80
2022-12-24T05:26:09.835Z,41.30
2022-12-24T05:31:16.035Z,34.20
2022-12-24T05:36:15.235Z,33.43
2022-12-24T05:41:15.511Z,42.33
2022-12-24T05:46:16.354Z,36.30
2022-12-24T05:51:18.907Z,42.50
2022-12-24T05:56:21.451Z,33.50
2022-12-24T06:01:21.698Z,37.63
2022-12-24T06:06:22.897Z,43.27
2022-12-24T06:11:24.991Z,37.77
2022-12-24T06:16:25.601Z,43.80
2022-12-24T06:21:24.526Z,33.67
2022-12-24T06:26:26.419Z,32.50
2022-12-24T06:31:25.429Z,39.97
2022-12-24T06:36:26.149Z,41.63
2022-12-24T06:41:28.842Z,38.00
2022-12-24T06:46:28.013Z,41.75
2022-12-24T06:51:27.097Z,33.40
2022-12-24T06:56:27.436Z,41.63
2022-12-24T07:01:26.310Z,44.22
2022-12-24T07:06:27.130Z,37.92
2022-12-24T07:11:27.612Z,37.63
2022-12-24T07:16:29.517Z,34.93
2022-12-24T07:21:28.501Z,38.28
2022-12-24T07:26:28.831Z,36.00
2022-12-24T07:31:29.627Z,32.50
2022-12-24T07:36:29.324Z,30.42
2022-12-24T07:41:37.930Z,32.17
2022-12-24T07:46:40.519Z,27.05
2022-12-24T07:51:39.669Z,24.13
2022-12-24T07:56:39.798Z,22.77
2022-12-24T08:01:38.748Z,22.23
2022-12-24T08:06:37.694Z,37.40
2022-12-24T08:11:36.466Z,29.92
2022-12-24T08:16:36.738Z,28.77
2022-12-24T08:21:35.583Z,31.98
2022-12-24T08:26:34.518Z,34.90
2022-12-24T08:31:36.640Z,31.48
2022-12-24T08:36:40.011Z,27.98
2022-12-24T08:41:38.957Z,26.30
2022-12-24T08:46:38.641Z,23.83
2022-12-24T08:51:38.869Z,23.90
2022-12-24T08:56:38.066Z,26.17
2022-12-24T09:01:37.344Z,26.55
2022-12-24T09:06:36.736Z,21.10
2022-12-24T09:11:37.217Z,23.77
2022-12-24T09:16:36.049Z,22.25
2022-12-24T09:21:34.861Z,21.85
2022-12-24T09:26:33.631Z,24.10
2022-12-24T09:31:34.211Z,21.80
2022-12-24T09:36:33.159Z,24.58
2022-12-24T09:41:42.980Z,21.20
2022-12-24T09:46:48.859Z,20.20
2022-12-24T09:51:52.445Z,20.02
2022-12-24T09:56:51.497Z,22.67
2022-12-24T10:01:53.600Z,18.45
2022-12-24T10:07:02.740Z,20.65
2022-12-24T10:12:09.732Z,20.33
2022-12-24T10:17:26.404Z,23.60
2022-12-24T10:22:34.493Z,20.50
2022-12-24T10:27:38.282Z,19.33
2022-12-24T10:32:39.432Z,19.52
2022-12-24T10:37:38.324Z,17.40
2022-12-24T10:42:50.363Z,21.27
2022-12-24T10:47:58.142Z,23.20
2022-12-24T10:53:05.841Z,24.30
2022-12-24T10:58:08.799Z,27.48
2022-12-24T11:03:25.437Z,23.25
2022-12-24T11:08:26.240Z,21.45
2022-12-24T11:13:38.839Z,24.83
2022-12-24T11:18:52.105Z,27.27
2022-12-24T11:23:54.650Z,17.75
2022-12-24T11:29:17.217Z,27.73
2022-12-24T11:34:26.663Z,23.38
2022-12-24T11:39:27.158Z,21.80
2022-12-24T11:44:28.354Z,28.88
2022-12-24T11:49:33.113Z,28.83
2022-12-24T11:54:40.424Z,22.40
2022-12-24T11:59:44.302Z,29.75
2022-12-24T12:04:47.933Z,27.23
2022-12-24T12:09:51.323Z,26.67
2022-12-24T12:14:53.442Z,22.00
2022-12-24T12:20:01.273Z,25.33
2022-12-24T12:25:02.296Z,21.52
2022-12-24T12:30:04.304Z,20.92
2022-12-24T12:35:15.520Z,22.80
2022-12-24T12:40:16.467Z,19.98
2022-12-24T12:45:35.144Z,22.55
2022-12-24T12:50:44.244Z,26.48
2022-12-24T12:55:52.674Z,22.48
2022-12-24T13:00:56.095Z,18.23
2022-12-24T13:06:30.957Z,22.00
2022-12-24T13:11:44.275Z,39.17
2022-12-24T13:17:15.252Z,25.42
2022-12-24T13:22:17.443Z,23.40
2022-12-24T13:27:20.578Z,27.92
2022-12-24T13:32:49.382Z,30.67
2022-12-24T13:37:51.321Z,30.00
2022-12-24T13:43:12.525Z,30.15
2022-12-24T13:48:40.467Z,30.60
2022-12-24T13:53:43.269Z,37.20
2022-12-24T13:58:45.730Z,33.58
2022-12-24T14:03:47.892Z,30.87
2022-12-24T14:08:49.184Z,26.83
2022-12-24T14:14:27.377Z,26.85
2022-12-24T14:19:37.060Z,27.33
2022-12-24T14:24:38.973Z,22.10
2022-12-24T14:29:47.908Z,22.55
2022-12-24T14:34:46.738Z,28.48
2022-12-24T14:39:57.003Z,31.25
2022-12-24T14:45:08.648Z,28.80
2022-12-24T14:50:35.793Z,20.55
2022-12-24T14:55:41.737Z,17.75
2022-12-24T15:00:44.842Z,15.68
2022-12-24T15:05:44.343Z,15.82
2022-12-24T15:10:45.534Z,19.98
2022-12-24T15:15:52.270Z,17.13
2022-12-24T15:21:04.124Z,23.33
2022-12-24T15:26:27.933Z,12.13
2022-12-24T15:31:29.968Z,13.82
2022-12-24T15:36:32.779Z,18.75
2022-12-24T15:41:38.412Z,11.05
2022-12-24T15:46:40.009Z,11.30
2022-12-24T15:51:46.239Z,11.30
2022-12-24T15:56:49.204Z,10.75
2022-12-24T16:01:50.425Z,12.23
2022-12-24T16:06:54.572Z,12.68
2022-12-24T16:11:59.475Z,10.82
2022-12-24T16:17:03.066Z,17.10
2022-12-24T16:22:24.230Z,16.20
2022-12-24T16:27:23.211Z,14.20
2022-12-24T16:32:32.070Z,15.15
2022-12-24T16:37:31.072Z,11.93
2022-12-24T16:42:47.169Z,10.18
2022-12-24T16:47:47.475Z,10.77
2022-12-24T16:52:46.443Z,9.50
2022-12-24T16:57:45.653Z,12.07
2022-12-24T17:02:44.561Z,11.18
2022-12-24T17:07:46.201Z,10.90
2022-12-24T17:12:45.212Z,14.15
2022-12-24T17:17:44.012Z,9.73
2022-12-24T17:22:42.929Z,7.05
2022-12-24T17:27:44.595Z,9.65
2022-12-24T17:32:43.584Z,7.93
2022-12-24T17:37:46.615Z,8.90
2022-12-24T17:42:46.868Z,8.10
2022-12-24T17:47:45.934Z,9.27
2022-12-24T17:52:44.749Z,9.63
2022-12-24T17:57:43.559Z,11.27
2022-12-24T18:02:44.017Z,8.68
2022-12-24T18:07:42.942Z,10.48
2022-12-24T18:12:41.795Z,11.20
2022-12-24T18:17:40.814Z,8.57
2022-12-24T18:22:40.973Z,8.73
2022-12-24T18:27:39.881Z,11.68
2022-12-24T18:32:39.390Z,10.75
2022-12-24T18:37:38.544Z,10.02
2022-12-24T18:42:41.936Z,10.60
2022-12-24T18:52:39.373Z,10.95
2022-12-24T18:57:39.562Z,9.13
2022-12-24T19:02:38.545Z,11.30
2022-12-24T19:07:37.492Z,9.27
2022-12-24T19:12:36.227Z,10.88
2022-12-24T19:17:36.359Z,8.00
2022-12-24T19:22:35.169Z,8.20
2022-12-24T19:27:33.972Z,9.75
2022-12-24T19:32:38.570Z,10.10
2022-12-24T19:37:38.739Z,9.40
2022-12-24T19:42:40.892Z,11.85
2022-12-24T19:47:39.800Z,11.02
2022-12-24T19:52:40.041Z,12.90
2022-12-24T19:57:39.661Z,12.00
2022-12-24T20:02:38.622Z,10.57
2022-12-24T20:07:37.476Z,11.32
2022-12-24T20:12:37.994Z,13.45
2022-12-24T20:17:36.747Z,11.95
2022-12-24T20:22:35.625Z,10.23
2022-12-24T20:27:34.333Z,11.85
2022-12-24T20:32:34.534Z,12.35
2022-12-24T20:37:38.080Z,12.07
2022-12-24T20:42:39.449Z,11.13
2022-12-24T20:47:40.121Z,11.02
2022-12-24T20:52:38.880Z,13.15
2022-12-24T20:57:37.719Z,12.25
2022-12-24T21:02:36.589Z,14.13
2022-12-24T21:07:39.073Z,19.00
2022-12-24T21:12:50.429Z,15.63
2022-12-24T21:17:50.403Z,18.75
2022-12-24T21:22:58.868Z,17.35
2022-12-24T21:27:59.613Z,20.40
2022-12-24T21:32:59.492Z,14.68
2022-12-24T21:37:59.706Z,20.02
2022-12-24T21:42:58.587Z,13.88
2022-12-24T21:48:20.348Z,15.05
2022-12-24T21:53:38.012Z,16.30
2022-12-24T21:58:37.908Z,12.95
2022-12-24T22:03:37.164Z,18.45
2022-12-24T22:09:00.622Z,17.63
2022-12-24T22:13:59.546Z,15.75
2022-12-24T22:19:03.804Z,14.45
2022-12-24T22:24:07.157Z,14.15
2022-12-24T22:29:06.214Z,14.50
2022-12-24T22:34:06.091Z,14.10
2022-12-24T22:39:06.552Z,13.40
2022-12-24T22:44:05.757Z,14.05
2022-12-24T22:49:05.397Z,15.07
2022-12-24T22:54:04.195Z,14.20
2022-12-24T22:59:05.918Z,13.85
2022-12-24T23:04:06.267Z,13.63
2022-12-24T23:09:07.144Z,13.10
2022-12-24T23:14:24.907Z,13.32
2022-12-24T23:19:23.750Z,13.30
2022-12-24T23:24:22.853Z,12.45
2022-12-24T23:29:23.273Z,12.02
2022-12-24T23:34:22.077Z,12.90
2022-12-24T23:39:21.040Z,12.45
2022-12-24T23:44:20.149Z,11.55
2022-12-24T23:49:20.408Z,11.50
2022-12-24T23:54:21.872Z,11.75
2022-12-24T23:59:24.897Z,12.90
